Time;durP1;ratioP1;P1;durP2;ratioP2;P2;SDS_P1;SDS_P2;PMS_P1;PMS_P2;Temp;Humidity;BMP_temperature;BMP_pressure;BME280_temperature;BME280_humidity;BME280_pressure;Samples;Min_cycle;Max_cycle;Signal;HPM_P1;HPM_P2
2023/11/08 00:00:03;;;;;;;;;;;22.90;51.60;;;;;;5095075;28;19924;-58
2023/11/08 00:02:30;;;;;;;;;;;22.90;51.60;;;;;;5094701;28;19990;-58
2023/11/08 00:04:57;;;;;;;;;;;22.90;51.60;;;;;;5094799;28;20338;-57
2023/11/08 00:07:24;;;;;;;;;;;22.90;51.50;;;;;;5094994;28;19931;-56
2023/11/08 00:09:51;;;;;;;;;;;22.90;51.50;;;;;;5076719;28;20385;-57
2023/11/08 00:12:18;;;;;;;;;;;22.90;51.50;;;;;;5094947;28;19970;-57
2023/11/08 00:14:46;;;;;;;;;;;22.90;51.50;;;;;;5094458;28;19973;-58
2023/11/08 00:17:16;;;;;;;;;;;23.00;51.50;;;;;;5094826;28;19978;-57
2023/11/08 00:19:43;;;;;;;;;;;23.00;51.40;;;;;;5094089;28;20019;-58
2023/11/08 00:22:11;;;;;;;;;;;23.00;51.40;;;;;;5094703;28;19950;-57
2023/11/08 00:24:38;;;;;;;;;;;23.00;51.40;;;;;;5094161;28;19925;-58
2023/11/08 00:27:05;;;;;;;;;;;23.00;51.40;;;;;;5094341;28;19928;-57
2023/11/08 00:29:33;;;;;;;;;;;23.00;51.40;;;;;;5094593;28;20271;-58
2023/11/08 00:32:00;;;;;;;;;;;23.00;51.40;;;;;;5076778;28;19924;-57
2023/11/08 00:34:27;;;;;;;;;;;23.00;51.40;;;;;;5094166;28;19928;-58
2023/11/08 00:36:56;;;;;;;;;;;22.90;51.30;;;;;;5093961;28;20311;-58
2023/11/08 00:39:23;;;;;;;;;;;22.90;51.30;;;;;;5094223;28;20023;-58
2023/11/08 00:41:50;;;;;;;;;;;23.00;51.40;;;;;;5076382;28;20339;-58
2023/11/08 00:44:17;;;;;;;;;;;22.90;51.30;;;;;;5094434;28;19977;-57
2023/11/08 00:46:44;;;;;;;;;;;22.90;51.40;;;;;;5094080;28;20448;-58
2023/11/08 00:49:12;;;;;;;;;;;22.90;51.30;;;;;;5059697;28;20334;-58
2023/11/08 00:51:41;;;;;;;;;;;22.90;51.30;;;;;;5094299;28;19924;-59
2023/11/08 00:54:11;;;;;;;;;;;22.90;51.30;;;;;;5093464;28;20023;-59
2023/11/08 00:56:39;;;;;;;;;;;22.90;51.30;;;;;;5093191;28;19967;-59
2023/11/08 00:59:06;;;;;;;;;;;22.90;51.40;;;;;;5093956;28;19935;-59
2023/11/08 01:01:35;;;;;;;;;;;22.90;51.40;;;;;;5094089;28;20326;-59
2023/11/08 01:04:03;;;;;;;;;;;22.90;51.40;;;;;;5093768;28;19931;-58
2023/11/08 01:06:31;;;;;;;;;;;22.90;51.40;;;;;;5093775;28;19924;-59
2023/11/08 01:08:59;;;;;;;;;;;22.90;51.40;;;;;;5093584;28;19932;-57
2023/11/08 01:11:27;;;;;;;;;;;22.90;51.40;;;;;;5093848;28;20392;-58
2023/11/08 01:13:55;;;;;;;;;;;22.90;51.40;;;;;;5093688;28;19924;-59
2023/11/08 01:16:22;;;;;;;;;;;22.80;51.70;;;;;;5094003;28;20368;-58
2023/11/08 01:18:49;;;;;;;;;;;22.80;51.40;;;;;;5093741;28;19927;-60
2023/11/08 01:21:16;;;;;;;;;;;22.80;51.40;;;;;;5093724;28;19959;-56
2023/11/08 01:23:43;;;;;;;;;;;22.90;51.50;;;;;;5093722;28;19931;-56
2023/11/08 01:26:10;;;;;;;;;;;22.80;51.40;;;;;;5091286;28;19974;-56
2023/11/08 01:28:38;;;;;;;;;;;22.80;51.40;;;;;;5113926;28;19924;-57
2023/11/08 01:31:05;;;;;;;;;;;22.90;51.40;;;;;;5095637;28;19924;-58
2023/11/08 01:33:32;;;;;;;;;;;22.90;51.30;;;;;;5113657;28;19938;-58
2023/11/08 01:35:59;;;;;;;;;;;22.90;51.30;;;;;;5113739;28;20011;-58
2023/11/08 01:38:26;;;;;;;;;;;22.90;51.30;;;;;;5113990;28;19924;-58
2023/11/08 01:40:54;;;;;;;;;;;22.90;51.20;;;;;;5113858;28;19924;-57
2023/11/08 01:43:27;;;;;;;;;;;22.90;51.20;;;;;;5113596;28;19932;-58
2023/11/08 01:46:03;;;;;;;;;;;22.90;51.20;;;;;;5113698;28;19931;-58
2023/11/08 01:48:30;;;;;;;;;;;22.90;51.10;;;;;;5113917;28;19924;-58
2023/11/08 01:50:57;;;;;;;;;;;22.90;51.10;;;;;;5113613;28;20353;-59
2023/11/08 01:53:27;;;;;;;;;;;22.90;51.10;;;;;;5113596;28;20018;-57
2023/11/08 01:55:58;;;;;;;;;;;22.90;51.20;;;;;;5113703;28;19978;-59
2023/11/08 01:58:25;;;;;;;;;;;22.90;51.20;;;;;;5113385;28;19967;-58
2023/11/08 02:00:53;;;;;;;;;;;22.80;51.20;;;;;;5113251;28;19931;-59
2023/11/08 02:03:20;;;;;;;;;;;22.80;51.20;;;;;;5113860;28;19924;-58
2023/11/08 02:05:47;;;;;;;;;;;22.80;51.20;;;;;;5113307;28;19928;-58
2023/11/08 02:08:14;;;;;;;;;;;22.80;51.20;;;;;;5116021;28;20023;-58
2023/11/08 02:10:42;;;;;;;;;;;22.80;51.20;;;;;;5117724;28;19930;-58
2023/11/08 02:13:09;;;;;;;;;;;22.80;51.20;;;;;;5117166;28;19981;-58
2023/11/08 02:15:40;;;;;;;;;;;22.80;51.20;;;;;;5117069;28;19927;-59
2023/11/08 02:18:07;;;;;;;;;;;22.80;51.20;;;;;;5099311;28;20334;-58
2023/11/08 02:20:35;;;;;;;;;;;22.80;51.20;;;;;;5117241;28;20288;-58
2023/11/08 02:23:02;;;;;;;;;;;22.80;51.20;;;;;;5099432;28;19960;-57
2023/11/08 02:25:29;;;;;;;;;;;22.80;51.20;;;;;;5117595;28;19950;-58
2023/11/08 02:27:57;;;;;;;;;;;22.80;51.30;;;;;;5117144;28;19981;-60
2023/11/08 02:30:24;;;;;;;;;;;22.70;51.20;;;;;;5117149;28;19950;-59
2023/11/08 02:32:52;;;;;;;;;;;22.70;51.20;;;;;;5116539;28;20018;-59
2023/11/08 02:35:20;;;;;;;;;;;22.70;51.20;;;;;;5116791;28;19931;-59
2023/11/08 02:37:48;;;;;;;;;;;22.70;51.20;;;;;;5117153;28;19981;-59
2023/11/08 02:40:15;;;;;;;;;;;22.80;51.30;;;;;;5132456;27;20433;-59
2023/11/08 02:42:43;;;;;;;;;;;22.70;51.30;;;;;;5116597;28;19969;-59
2023/11/08 02:45:10;;;;;;;;;;;22.70;51.30;;;;;;5119239;27;19967;-59
2023/11/08 02:47:37;;;;;;;;;;;22.70;51.30;;;;;;5137503;27;19980;-59
2023/11/08 02:50:05;;;;;;;;;;;22.70;51.40;;;;;;5132565;27;19924;-58
2023/11/08 02:52:32;;;;;;;;;;;22.70;51.40;;;;;;5116916;28;20391;-60
2023/11/08 02:54:59;;;;;;;;;;;22.70;51.30;;;;;;5116206;28;19962;-59
2023/11/08 02:57:27;;;;;;;;;;;22.70;51.20;;;;;;5116767;28;19977;-59
2023/11/08 02:59:54;;;;;;;;;;;22.80;51.30;;;;;;5116237;28;19931;-59
2023/11/08 03:02:22;;;;;;;;;;;22.80;51.20;;;;;;5098768;28;19924;-59
2023/11/08 03:04:49;;;;;;;;;;;22.80;51.10;;;;;;5116254;28;19951;-58
2023/11/08 03:07:16;;;;;;;;;;;22.80;51.10;;;;;;5115958;28;19930;-59
2023/11/08 03:09:43;;;;;;;;;;;22.80;51.70;;;;;;5116389;28;19923;-59
2023/11/08 03:12:10;;;;;;;;;;;22.80;51.10;;;;;;5098731;28;19927;-59
2023/11/08 03:14:37;;;;;;;;;;;22.80;51.10;;;;;;5116078;28;19979;-59
2023/11/08 03:17:04;;;;;;;;;;;22.80;51.10;;;;;;5116082;28;19923;-60
2023/11/08 03:19:33;;;;;;;;;;;22.80;51.20;;;;;;5114620;28;20193;-59
2023/11/08 03:22:02;;;;;;;;;;;22.70;51.20;;;;;;5115851;28;19923;-59
2023/11/08 03:24:30;;;;;;;;;;;22.70;51.20;;;;;;5115922;28;19972;-59
2023/11/08 03:26:57;;;;;;;;;;;22.70;51.20;;;;;;5115360;28;20419;-60
2023/11/08 03:29:24;;;;;;;;;;;22.70;51.20;;;;;;5116064;28;20470;-59
2023/11/08 03:31:51;;;;;;;;;;;22.70;51.30;;;;;;5115769;28;19928;-59
2023/11/08 03:34:20;;;;;;;;;;;22.70;51.30;;;;;;5116178;28;19927;-57
2023/11/08 03:36:47;;;;;;;;;;;22.60;51.30;;;;;;5115810;28;19928;-57
2023/11/08 03:39:14;;;;;;;;;;;22.60;51.30;;;;;;5115397;28;20014;-58
2023/11/08 03:41:41;;;;;;;;;;;22.70;51.40;;;;;;5115562;28;19924;-57
2023/11/08 03:44:08;;;;;;;;;;;22.60;51.30;;;;;;5115709;28;20330;-59
2023/11/08 03:46:35;;;;;;;;;;;22.60;51.40;;;;;;5115695;28;20399;-57
2023/11/08 03:49:02;;;;;;;;;;;22.60;51.40;;;;;;5115666;28;19924;-57
2023/11/08 03:51:29;;;;;;;;;;;22.60;51.40;;;;;;5115468;28;20300;-58
2023/11/08 03:53:56;;;;;;;;;;;22.60;51.40;;;;;;5115823;28;20065;-58
2023/11/08 03:56:27;;;;;;;;;;;22.60;51.40;;;;;;5115060;28;19979;-58
2023/11/08 03:58:54;;;;;;;;;;;22.60;51.40;;;;;;5115213;28;19970;-58
2023/11/08 04:01:21;;;;;;;;;;;22.60;51.40;;;;;;5115397;28;19985;-57
2023/11/08 04:03:48;;;;;;;;;;;22.60;51.40;;;;;;5115491;28;19924;-58
2023/11/08 04:06:15;;;;;;;;;;;22.60;51.40;;;;;;5115013;28;19970;-59
2023/11/08 04:08:42;;;;;;;;;;;22.60;51.40;;;;;;5115060;28;19924;-58
2023/11/08 04:11:09;;;;;;;;;;;22.60;51.50;;;;;;5097238;28;19928;-58
2023/11/08 04:13:36;;;;;;;;;;;22.60;51.50;;;;;;5115062;28;19927;-58
2023/11/08 04:16:03;;;;;;;;;;;22.60;51.50;;;;;;5115113;28;19924;-57
2023/11/08 04:18:30;;;;;;;;;;;22.60;51.50;;;;;;5115421;28;20261;-58
2023/11/08 04:20:58;;;;;;;;;;;22.60;51.50;;;;;;5097108;28;20022;-58
2023/11/08 04:23:25;;;;;;;;;;;22.60;51.40;;;;;;5115163;28;20034;-58
2023/11/08 04:25:53;;;;;;;;;;;22.60;51.40;;;;;;5114822;28;19924;-58
2023/11/08 04:28:20;;;;;;;;;;;22.60;51.30;;;;;;5114900;28;19985;-58
2023/11/08 04:30:47;;;;;;;;;;;22.60;51.30;;;;;;5114331;28;20372;-58
2023/11/08 04:33:14;;;;;;;;;;;22.70;51.30;;;;;;5114534;28;19924;-58
2023/11/08 04:35:41;;;;;;;;;;;22.70;51.20;;;;;;5114477;28;19924;-58
2023/11/08 04:38:08;;;;;;;;;;;22.70;51.10;;;;;;5095586;28;20353;-58
2023/11/08 04:40:35;;;;;;;;;;;22.70;50.90;;;;;;5099885;28;19928;-58
2023/11/08 04:43:02;;;;;;;;;;;22.70;50.80;;;;;;5093529;28;20089;-57
2023/11/08 04:45:29;;;;;;;;;;;22.70;50.60;;;;;;5103104;28;19955;-57
2023/11/08 04:47:57;;;;;;;;;;;22.70;50.40;;;;;;5094215;28;19928;-57
2023/11/08 04:50:24;;;;;;;;;;;22.70;50.30;;;;;;5092668;28;20380;-57
2023/11/08 04:52:51;;;;;;;;;;;22.70;50.10;;;;;;5093810;28;19924;-57
2023/11/08 04:55:20;;;;;;;;;;;22.70;50.00;;;;;;5094418;28;19924;-57
2023/11/08 04:57:47;;;;;;;;;;;22.70;49.70;;;;;;5093740;28;19967;-57
2023/11/08 05:00:14;;;;;;;;;;;22.70;49.50;;;;;;5093983;28;19924;-58
2023/11/08 05:02:42;;;;;;;;;;;22.70;49.50;;;;;;5093422;28;19924;-58
2023/11/08 05:05:09;;;;;;;;;;;22.70;49.40;;;;;;5085368;28;19927;-57
2023/11/08 05:07:36;;;;;;;;;;;22.60;49.40;;;;;;5114015;28;19924;-58
2023/11/08 05:10:03;;;;;;;;;;;22.60;50.00;;;;;;5107501;28;19930;-57
2023/11/08 05:12:30;;;;;;;;;;;22.60;49.40;;;;;;5099318;28;19924;-57
2023/11/08 05:14:57;;;;;;;;;;;22.60;49.40;;;;;;5109224;28;19928;-57
2023/11/08 05:17:24;;;;;;;;;;;22.60;49.40;;;;;;5100643;28;19953;-56
2023/11/08 05:19:51;;;;;;;;;;;22.50;49.40;;;;;;5134033;27;19923;-57
2023/11/08 05:22:19;;;;;;;;;;;22.50;49.40;;;;;;5115727;27;20387;-57
2023/11/08 05:24:46;;;;;;;;;;;22.50;49.30;;;;;;5134345;27;20019;-57
2023/11/08 05:27:17;;;;;;;;;;;22.50;49.30;;;;;;5115840;27;19923;-57
2023/11/08 05:29:44;;;;;;;;;;;22.50;49.30;;;;;;5134159;27;19931;-57
2023/11/08 05:32:11;;;;;;;;;;;22.50;49.20;;;;;;5134670;27;19972;-57
2023/11/08 05:34:39;;;;;;;;;;;22.50;49.10;;;;;;5134110;27;19977;-56
2023/11/08 05:37:06;;;;;;;;;;;22.50;49.00;;;;;;5134662;27;19959;-58
2023/11/08 05:39:33;;;;;;;;;;;22.50;49.00;;;;;;5126689;27;19998;-57
2023/11/08 05:42:00;;;;;;;;;;;22.50;49.40;;;;;;5094752;28;19924;-56
2023/11/08 05:44:27;;;;;;;;;;;22.60;48.90;;;;;;5095734;28;19993;-58
2023/11/08 05:46:54;;;;;;;;;;;22.60;48.80;;;;;;5113174;28;19924;-57
2023/11/08 05:49:22;;;;;;;;;;;22.60;48.70;;;;;;5113193;28;20388;-57
2023/11/08 05:51:49;;;;;;;;;;;22.60;48.70;;;;;;5113228;28;19931;-57
2023/11/08 05:54:16;;;;;;;;;;;22.60;48.50;;;;;;5113517;28;19924;-57
2023/11/08 05:56:43;;;;;;;;;;;22.60;48.40;;;;;;5112892;28;20299;-58
2023/11/08 05:59:10;;;;;;;;;;;22.60;48.40;;;;;;5113172;28;20356;-58
2023/11/08 06:01:38;;;;;;;;;;;22.60;48.40;;;;;;5112816;28;19928;-58
2023/11/08 06:04:07;;;;;;;;;;;22.60;48.40;;;;;;5112872;28;19970;-58
2023/11/08 06:06:35;;;;;;;;;;;22.60;48.30;;;;;;5094883;28;20283;-58
2023/11/08 06:09:04;;;;;;;;;;;22.60;48.20;;;;;;5112416;28;20004;-58
2023/11/08 06:11:31;;;;;;;;;;;22.60;48.20;;;;;;5107156;28;19935;-58
2023/11/08 06:13:58;;;;;;;;;;;22.70;48.20;;;;;;5101041;28;20380;-56
2023/11/08 06:16:25;;;;;;;;;;;22.60;48.30;;;;;;5110981;28;19927;-63
2023/11/08 06:18:52;;;;;;;;;;;22.60;48.40;;;;;;5089459;28;20395;-58
2023/11/08 06:21:20;;;;;;;;;;;22.70;48.40;;;;;;5107721;28;19932;-61
2023/11/08 06:23:49;;;;;;;;;;;22.70;48.80;;;;;;5107444;28;20307;-58
2023/11/08 06:26:16;;;;;;;;;;;22.70;48.90;;;;;;5104423;28;19936;-63
2023/11/08 06:28:44;;;;;;;;;;;22.70;49.00;;;;;;5109412;28;19957;-58
2023/11/08 06:31:11;;;;;;;;;;;22.80;49.10;;;;;;5107485;28;19934;-63
2023/11/08 06:33:38;;;;;;;;;;;22.80;49.10;;;;;;5098394;28;19938;-60
2023/11/08 06:36:06;;;;;;;;;;;22.90;49.10;;;;;;5096497;28;19931;-61
2023/11/08 06:38:33;;;;;;;;;;;22.90;49.00;;;;;;5088193;28;19928;-61
2023/11/08 06:41:00;;;;;;;;;;;23.00;48.90;;;;;;5100800;28;19953;-61
2023/11/08 06:43:27;;;;;;;;;;;23.00;48.70;;;;;;5102099;28;19947;-60
2023/11/08 06:45:54;;;;;;;;;;;23.00;48.60;;;;;;5101122;28;19990;-59
2023/11/08 06:48:22;;;;;;;;;;;23.00;48.30;;;;;;5102792;28;19944;-60
2023/11/08 06:50:49;;;;;;;;;;;23.10;48.10;;;;;;5100024;28;19967;-60
2023/11/08 06:53:17;;;;;;;;;;;23.10;48.10;;;;;;5104910;28;19932;-60
2023/11/08 06:55:46;;;;;;;;;;;23.10;48.00;;;;;;5108858;27;19932;-60
2023/11/08 06:58:13;;;;;;;;;;;23.20;48.00;;;;;;5105779;27;19932;-60
2023/11/08 07:00:42;;;;;;;;;;;23.20;48.00;;;;;;5093380;27;19969;-62
2023/11/08 07:03:10;;;;;;;;;;;23.30;47.90;;;;;;5105307;27;19932;-60
2023/11/08 07:05:37;;;;;;;;;;;23.30;48.10;;;;;;5103934;27;20346;-59
2023/11/08 07:08:06;;;;;;;;;;;23.30;48.10;;;;;;5109122;27;19985;-60
2023/11/08 07:10:33;;;;;;;;;;;23.30;48.10;;;;;;5107050;27;19930;-61
2023/11/08 07:13:01;;;;;;;;;;;23.30;48.10;;;;;;5109451;27;19924;-62
2023/11/08 07:15:28;;;;;;;;;;;23.40;48.00;;;;;;5107150;27;20514;-62
2023/11/08 07:17:56;;;;;;;;;;;23.40;48.10;;;;;;5108671;27;19954;-61
2023/11/08 07:20:24;;;;;;;;;;;23.50;48.20;;;;;;5093288;28;19978;-62
2023/11/08 07:22:51;;;;;;;;;;;23.50;48.10;;;;;;5098163;27;20405;-60
2023/11/08 07:25:18;;;;;;;;;;;23.60;48.00;;;;;;5092307;27;19942;-61
2023/11/08 07:27:45;;;;;;;;;;;23.60;48.00;;;;;;5102850;27;19931;-61
2023/11/08 07:30:14;;;;;;;;;;;23.60;47.90;;;;;;5104978;27;19984;-60
2023/11/08 07:32:45;;;;;;;;;;;23.60;47.80;;;;;;5095853;28;19938;-57
2023/11/08 07:35:13;;;;;;;;;;;23.60;47.70;;;;;;5102627;27;19928;-61
2023/11/08 07:37:40;;;;;;;;;;;23.60;47.60;;;;;;5109093;27;19956;-61
2023/11/08 07:40:15;;;;;;;;;;;23.70;47.50;;;;;;5119261;27;20022;-61
2023/11/08 07:42:42;;;;;;;;;;;23.70;47.50;;;;;;5092717;27;19923;-61
2023/11/08 07:45:09;;;;;;;;;;;23.70;47.50;;;;;;5090595;28;19932;-59
2023/11/08 07:47:36;;;;;;;;;;;23.70;47.40;;;;;;5107724;27;20010;-61
2023/11/08 07:50:05;;;;;;;;;;;23.70;47.40;;;;;;5117542;27;20621;-60
2023/11/08 07:52:33;;;;;;;;;;;23.70;47.30;;;;;;5105089;27;19999;-61
2023/11/08 07:55:01;;;;;;;;;;;23.70;47.30;;;;;;5108756;27;19938;-60
2023/11/08 07:57:28;;;;;;;;;;;23.80;47.50;;;;;;5080488;27;19924;-59
2023/11/08 07:59:55;;;;;;;;;;;23.80;47.40;;;;;;5104590;27;20341;-58
2023/11/08 08:02:22;;;;;;;;;;;23.90;47.40;;;;;;5090493;28;19939;-59
2023/11/08 08:04:49;;;;;;;;;;;23.90;47.20;;;;;;5107455;27;20400;-59
2023/11/08 08:07:16;;;;;;;;;;;23.90;47.10;;;;;;5107978;27;19938;-59
2023/11/08 08:09:44;;;;;;;;;;;23.90;47.00;;;;;;5109378;27;19975;-59
2023/11/08 08:12:12;;;;;;;;;;;23.90;46.90;;;;;;5100343;27;19931;-60
2023/11/08 08:14:39;;;;;;;;;;;24.00;46.90;;;;;;5104530;28;19939;-56
2023/11/08 08:17:06;;;;;;;;;;;24.00;46.90;;;;;;5102945;27;19955;-58
2023/11/08 08:19:33;;;;;;;;;;;24.00;46.90;;;;;;5102526;27;19985;-61
2023/11/08 08:22:01;;;;;;;;;;;24.10;47.00;;;;;;5103826;27;19980;-57
2023/11/08 08:24:29;;;;;;;;;;;24.10;46.90;;;;;;5103221;28;19924;-60
2023/11/08 08:26:56;;;;;;;;;;;24.10;46.90;;;;;;5107489;27;20436;-59
2023/11/08 08:29:26;;;;;;;;;;;24.10;46.90;;;;;;5100360;27;19927;-60
2023/11/08 08:31:53;;;;;;;;;;;24.10;46.90;;;;;;5099267;27;19953;-57
2023/11/08 08:34:21;;;;;;;;;;;24.10;46.90;;;;;;5102995;27;20028;-59
2023/11/08 08:36:57;;;;;;;;;;;24.20;47.00;;;;;;5106001;27;20065;-59
2023/11/08 08:39:27;;;;;;;;;;;24.20;46.90;;;;;;5103669;27;20010;-60
2023/11/08 08:41:56;;;;;;;;;;;24.20;46.90;;;;;;5108442;27;19939;-64
2023/11/08 08:44:24;;;;;;;;;;;24.20;46.80;;;;;;5104049;27;20250;-60
2023/11/08 08:46:51;;;;;;;;;;;24.30;46.80;;;;;;5101223;27;19927;-60
2023/11/08 08:49:19;;;;;;;;;;;24.30;46.80;;;;;;5119294;27;20402;-61
2023/11/08 08:51:49;;;;;;;;;;;24.30;47.40;;;;;;5099893;27;19943;-61
2023/11/08 08:54:16;;;;;;;;;;;24.30;46.90;;;;;;5105746;27;19951;-60
2023/11/08 08:56:47;;;;;;;;;;;24.30;47.10;;;;;;5105086;27;19931;-60
2023/11/08 08:59:14;;;;;;;;;;;24.40;47.10;;;;;;5100299;27;19938;-64
2023/11/08 09:01:41;;;;;;;;;;;24.40;47.00;;;;;;5102195;27;19935;-61
2023/11/08 09:04:08;;;;;;;;;;;24.40;47.00;;;;;;5101882;27;19927;-61
2023/11/08 09:06:36;;;;;;;;;;;24.50;46.90;;;;;;5088053;28;20002;-60
2023/11/08 09:09:04;;;;;;;;;;;24.50;46.70;;;;;;5098058;27;19975;-60
2023/11/08 09:11:31;;;;;;;;;;;24.50;46.40;;;;;;5102208;27;19932;-60
2023/11/08 09:13:57;;;;;;;;;;;24.50;46.00;;;;;;5102371;27;19985;-61
2023/11/08 09:16:25;;;;;;;;;;;24.60;45.80;;;;;;5101403;27;19971;-57
2023/11/08 09:18:52;;;;;;;;;;;24.60;45.70;;;;;;5104610;27;19930;-60
2023/11/08 09:21:23;;;;;;;;;;;24.60;45.50;;;;;;5083411;28;20003;-60
2023/11/08 09:23:50;;;;;;;;;;;24.60;45.60;;;;;;5104062;27;19935;-58
2023/11/08 09:26:17;;;;;;;;;;;24.70;45.60;;;;;;5105255;27;19924;-60
2023/11/08 09:28:44;;;;;;;;;;;24.70;45.70;;;;;;5104471;28;20389;-60
2023/11/08 09:31:11;;;;;;;;;;;24.70;45.50;;;;;;5100236;28;19932;-61
2023/11/08 09:33:39;;;;;;;;;;;24.70;45.70;;;;;;5103591;28;20388;-59
2023/11/08 09:36:06;;;;;;;;;;;24.70;45.30;;;;;;5103353;27;19932;-62
2023/11/08 09:38:33;;;;;;;;;;;24.80;45.10;;;;;;5103876;28;20395;-60
2023/11/08 09:41:01;;;;;;;;;;;24.80;45.00;;;;;;5092263;28;19938;-58
2023/11/08 09:43:28;;;;;;;;;;;24.80;44.80;;;;;;5095702;28;19928;-60
2023/11/08 09:45:57;;;;;;;;;;;24.80;44.70;;;;;;5098576;28;19973;-58
2023/11/08 09:48:24;;;;;;;;;;;24.90;44.70;;;;;;5094090;28;19993;-59
2023/11/08 09:50:51;;;;;;;;;;;24.90;44.70;;;;;;5083130;28;20009;-59
2023/11/08 09:53:18;;;;;;;;;;;24.90;44.80;;;;;;5100978;28;19935;-60
2023/11/08 09:55:46;;;;;;;;;;;24.90;44.70;;;;;;5119653;27;20034;-60
2023/11/08 09:58:14;;;;;;;;;;;24.90;44.40;;;;;;5083622;28;20033;-59
2023/11/08 10:00:41;;;;;;;;;;;24.90;44.30;;;;;;5102808;28;19932;-60
2023/11/08 10:03:08;;;;;;;;;;;24.90;44.30;;;;;;5096761;28;19932;-62
2023/11/08 10:05:37;;;;;;;;;;;25.00;44.40;;;;;;5097900;28;19931;-58
2023/11/08 10:08:09;;;;;;;;;;;24.90;44.30;;;;;;5088752;28;20348;-60
2023/11/08 10:10:37;;;;;;;;;;;24.90;44.10;;;;;;5101593;28;19923;-60
2023/11/08 10:13:05;;;;;;;;;;;24.90;43.90;;;;;;5091023;28;19980;-63
2023/11/08 10:15:33;;;;;;;;;;;24.90;43.70;;;;;;5097740;28;20624;-61
2023/11/08 10:18:00;;;;;;;;;;;25.00;43.60;;;;;;5110288;28;19955;-59
2023/11/08 10:20:47;;;;;;;;;;;24.90;43.30;;;;;;5106538;28;19923;-59
2023/11/08 10:23:30;;;;;;;;;;;24.90;43.10;;;;;;5103677;28;20535;-58
2023/11/08 10:26:14;;;;;;;;;;;25.00;42.90;;;;;;5098174;28;20415;-60
2023/11/08 10:29:00;;;;;;;;;;;25.00;42.80;;;;;;5099399;27;20338;-61
2023/11/08 10:31:28;;;;;;;;;;;24.90;40.50;;;;;;5108354;27;20008;-60
2023/11/08 10:33:56;;;;;;;;;;;24.80;41.50;;;;;;5092355;27;19928;-59
2023/11/08 10:36:23;;;;;;;;;;;24.80;41.60;;;;;;5109245;27;19931;-60
2023/11/08 10:38:51;;;;;;;;;;;24.80;41.70;;;;;;5110811;27;19938;-60
2023/11/08 10:41:18;;;;;;;;;;;24.80;41.70;;;;;;5106996;27;19938;-59
2023/11/08 10:43:46;;;;;;;;;;;24.80;41.80;;;;;;5108355;27;19980;-60
2023/11/08 10:46:13;;;;;;;;;;;24.80;42.00;;;;;;5102060;27;21562;-59
2023/11/08 10:48:43;;;;;;;;;;;24.80;42.30;;;;;;5103332;27;19927;-58
2023/11/08 10:51:12;;;;;;;;;;;24.70;42.30;;;;;;5102537;27;20356;-58
2023/11/08 10:53:39;;;;;;;;;;;24.80;42.20;;;;;;5105580;27;19923;-58
2023/11/08 10:56:08;;;;;;;;;;;24.80;42.10;;;;;;5101709;27;19932;-60
2023/11/08 10:58:38;;;;;;;;;;;24.80;42.00;;;;;;5105434;27;19977;-59
2023/11/08 11:01:06;;;;;;;;;;;24.80;41.90;;;;;;5089976;28;19993;-59
2023/11/08 11:03:33;;;;;;;;;;;24.90;42.10;;;;;;5099933;27;19932;-61
2023/11/08 11:06:02;;;;;;;;;;;24.80;42.00;;;;;;5103182;27;20120;-55
2023/11/08 11:08:33;;;;;;;;;;;24.80;41.80;;;;;;5101758;27;21408;-58
2023/11/08 11:11:00;;;;;;;;;;;24.90;41.70;;;;;;5106060;28;20388;-59
2023/11/08 11:13:31;;;;;;;;;;;24.90;41.70;;;;;;5088928;28;20381;-59
2023/11/08 11:16:13;;;;;;;;;;;24.90;41.60;;;;;;5106135;28;20334;-58
2023/11/08 11:19:02;;;;;;;;;;;24.90;41.10;;;;;;5108493;27;19935;-59
2023/11/08 11:21:34;;;;;;;;;;;24.90;40.90;;;;;;5108617;27;20009;-58
2023/11/08 11:24:02;;;;;;;;;;;24.90;40.90;;;;;;5106744;27;19928;-59
2023/11/08 11:26:42;;;;;;;;;;;24.90;41.10;;;;;;5104054;28;20019;-59
2023/11/08 11:29:15;;;;;;;;;;;24.90;41.20;;;;;;5105954;27;19939;-60
2023/11/08 11:31:42;;;;;;;;;;;24.90;41.20;;;;;;5106795;27;19960;-60
2023/11/08 11:34:30;;;;;;;;;;;24.90;41.30;;;;;;5103379;27;19936;-60
2023/11/08 11:37:13;;;;;;;;;;;24.90;41.20;;;;;;5083930;28;20019;-56
2023/11/08 11:39:44;;;;;;;;;;;24.90;41.20;;;;;;5110841;27;19935;-58
2023/11/08 11:42:16;;;;;;;;;;;24.90;41.20;;;;;;5099818;28;19931;-56
2023/11/08 11:44:46;;;;;;;;;;;24.90;41.20;;;;;;5087218;28;19960;-55
2023/11/08 11:47:14;;;;;;;;;;;24.90;41.20;;;;;;5107889;27;19931;-55
2023/11/08 11:49:46;;;;;;;;;;;24.90;41.00;;;;;;5106209;27;19977;-55
2023/11/08 11:52:14;;;;;;;;;;;24.80;40.90;;;;;;5109349;27;20415;-57
2023/11/08 11:54:52;;;;;;;;;;;24.90;40.80;;;;;;5107465;27;19974;-56
2023/11/08 11:57:20;;;;;;;;;;;24.90;40.70;;;;;;5103250;27;19927;-57
2023/11/08 11:59:48;;;;;;;;;;;24.90;40.60;;;;;;5100459;27;20450;-58
2023/11/08 12:02:16;;;;;;;;;;;24.90;40.60;;;;;;5101791;27;19928;-59
2023/11/08 12:04:44;;;;;;;;;;;24.90;40.50;;;;;;5107058;27;19979;-57
2023/11/08 12:07:17;;;;;;;;;;;24.90;40.50;;;;;;5110220;27;19927;-56
2023/11/08 12:09:45;;;;;;;;;;;24.90;40.50;;;;;;5104437;27;19931;-60
2023/11/08 12:12:13;;;;;;;;;;;24.90;40.40;;;;;;5106918;27;19928;-57
2023/11/08 12:14:41;;;;;;;;;;;24.90;40.30;;;;;;5103828;27;19931;-57
2023/11/08 12:17:08;;;;;;;;;;;24.90;40.30;;;;;;5085843;28;20000;-58
2023/11/08 12:19:35;;;;;;;;;;;24.90;40.30;;;;;;5090779;28;20283;-56
2023/11/08 12:22:05;;;;;;;;;;;24.90;40.30;;;;;;5106957;27;20015;-59
2023/11/08 12:24:32;;;;;;;;;;;24.90;40.30;;;;;;5102181;27;20018;-59
2023/11/08 12:27:03;;;;;;;;;;;24.90;40.30;;;;;;5102465;27;19924;-58
2023/11/08 12:29:30;;;;;;;;;;;25.00;40.30;;;;;;5091778;28;19927;-58
2023/11/08 12:31:57;;;;;;;;;;;25.00;40.30;;;;;;5095463;28;19936;-58
2023/11/08 12:34:25;;;;;;;;;;;25.00;40.10;;;;;;5094191;28;19932;-58
2023/11/08 12:36:54;;;;;;;;;;;25.00;40.00;;;;;;5089431;28;19938;-58
2023/11/08 12:39:25;;;;;;;;;;;25.10;39.90;;;;;;5110389;27;19928;-58
2023/11/08 12:41:55;;;;;;;;;;;25.00;39.70;;;;;;5114862;27;20039;-57
2023/11/08 12:44:23;;;;;;;;;;;25.10;39.80;;;;;;5101535;27;20015;-57
2023/11/08 12:46:55;;;;;;;;;;;25.00;39.80;;;;;;5103987;28;19938;-59
2023/11/08 12:49:32;;;;;;;;;;;25.00;39.70;;;;;;5101599;27;19964;-61
2023/11/08 12:52:03;;;;;;;;;;;25.00;39.70;;;;;;5082085;28;19931;-54
2023/11/08 12:54:30;;;;;;;;;;;25.00;39.70;;;;;;5094529;27;20368;-57
2023/11/08 12:56:58;;;;;;;;;;;25.00;39.80;;;;;;5103949;27;20022;-59
2023/11/08 12:59:25;;;;;;;;;;;25.00;39.80;;;;;;5100043;27;19931;-58
2023/11/08 13:02:18;;;;;;;;;;;25.00;40.00;;;;;;5104594;27;19932;-58
2023/11/08 13:04:48;;;;;;;;;;;25.00;40.10;;;;;;5076491;27;19988;-56
2023/11/08 13:07:16;;;;;;;;;;;25.00;40.10;;;;;;5100131;27;19934;-55
2023/11/08 13:09:43;;;;;;;;;;;25.00;39.90;;;;;;5106900;27;20303;-50
2023/11/08 13:12:13;;;;;;;;;;;25.00;39.80;;;;;;5104206;28;19977;-55
2023/11/08 13:14:40;;;;;;;;;;;25.00;39.90;;;;;;5104472;28;19924;-58
2023/11/08 13:17:11;;;;;;;;;;;24.90;39.90;;;;;;5097454;27;19932;-56
2023/11/08 13:19:38;;;;;;;;;;;25.00;40.00;;;;;;5106937;27;20035;-56
2023/11/08 13:22:06;;;;;;;;;;;24.90;39.90;;;;;;5112746;27;20014;-56
2023/11/08 13:24:33;;;;;;;;;;;24.90;39.90;;;;;;5106616;28;20282;-57
2023/11/08 13:27:01;;;;;;;;;;;24.90;39.90;;;;;;5108218;27;19924;-56
2023/11/08 13:29:28;;;;;;;;;;;24.90;40.00;;;;;;5107332;27;20014;-57
2023/11/08 13:31:58;;;;;;;;;;;24.90;39.90;;;;;;5105960;28;19967;-59
2023/11/08 13:34:26;;;;;;;;;;;24.90;40.00;;;;;;5109446;27;20318;-57
2023/11/08 13:36:53;;;;;;;;;;;24.90;39.80;;;;;;5099239;28;19943;-56
2023/11/08 13:39:20;;;;;;;;;;;24.90;39.70;;;;;;5108976;27;19930;-58
2023/11/08 13:41:47;;;;;;;;;;;24.90;39.60;;;;;;5105818;28;19924;-57
2023/11/08 13:44:14;;;;;;;;;;;24.90;39.60;;;;;;5108080;28;20342;-56
2023/11/08 13:46:41;;;;;;;;;;;24.90;39.60;;;;;;5084712;28;19978;-58
2023/11/08 13:49:10;;;;;;;;;;;24.90;39.50;;;;;;5103718;28;19931;-57
2023/11/08 13:51:37;;;;;;;;;;;24.90;39.50;;;;;;5099024;28;19924;-54
2023/11/08 13:54:05;;;;;;;;;;;24.90;39.60;;;;;;5102136;28;19985;-56
2023/11/08 13:56:33;;;;;;;;;;;24.90;39.60;;;;;;5096100;28;19947;-54
2023/11/08 13:59:03;;;;;;;;;;;24.90;39.60;;;;;;5099736;28;19923;-61
2023/11/08 14:01:30;;;;;;;;;;;24.90;39.90;;;;;;5106806;28;19967;-61
2023/11/08 14:03:59;;;;;;;;;;;24.90;40.20;;;;;;5108522;27;19927;-59
2023/11/08 14:06:26;;;;;;;;;;;24.90;40.50;;;;;;5091615;28;19989;-59
2023/11/08 14:08:53;;;;;;;;;;;24.80;40.80;;;;;;5109523;27;19981;-58
2023/11/08 14:11:20;;;;;;;;;;;24.90;41.10;;;;;;5112283;27;19924;-59
2023/11/08 14:13:47;;;;;;;;;;;24.90;41.40;;;;;;5125741;27;19924;-59
2023/11/08 14:16:15;;;;;;;;;;;24.90;41.30;;;;;;5108064;27;19923;-58
2023/11/08 14:18:44;;;;;;;;;;;24.90;41.40;;;;;;5113553;27;19924;-53
2023/11/08 14:21:11;;;;;;;;;;;24.90;41.30;;;;;;5113523;27;19931;-55